sensor_id;sensor_type;location;lat;lon;timestamp;pressure;altitude;pressure_sealevel;temperature;humidity
68891;BME280;55932;48.702;8.884;2022-12-18T00:00:51;97120;;;-12.3;71.5
68891;BME280;55932;48.702;8.884;2022-12-18T00:05:48;97130;;;-12.4;71.5
68891;BME280;55932;48.702;8.884;2022-12-18T00:13:25;97120;;;-12.2;71.5
68891;BME280;55932;48.702;8.884;2022-12-18T00:15:55;97120;;;-12.3;71.5
68891;BME280;55932;48.702;8.884;2022-12-18T00:18:25;97110;;;-12.4;71.5
68891;BME280;55932;48.702;8.884;2022-12-18T00:23:26;97120;;;-12.4;71.5
68891;BME280;55932;48.702;8.884;2022-12-18T00:26:04;97120;;;-12.2;71.5
68891;BME280;55932;48.702;8.884;2022-12-18T00:28:33;97130;;;-12.2;71
68891;BME280;55932;48.702;8.884;2022-12-18T00:31:07;97130;;;-12.2;71
68891;BME280;55932;48.702;8.884;2022-12-18T00:35:50;97130;;;-12.3;71
68891;BME280;55932;48.702;8.884;2022-12-18T00:38:21;97120;;;-12.3;71
68891;BME280;55932;48.702;8.884;2022-12-18T00:40:53;97130;;;-12.3;71
68891;BME280;55932;48.702;8.884;2022-12-18T00:43:24;97120;;;-12.3;71
68891;BME280;55932;48.702;8.884;2022-12-18T00:45:54;97120;;;-12.3;71
68891;BME280;55932;48.702;8.884;2022-12-18T00:50:56;97130;;;-12.3;71
68891;BME280;55932;48.702;8.884;2022-12-18T00:53:27;97130;;;-12.2;71
68891;BME280;55932;48.702;8.884;2022-12-18T00:56:05;97140;;;-12.1;71
68891;BME280;55932;48.702;8.884;2022-12-18T01:03:37;97130;;;-11.9;71
68891;BME280;55932;48.702;8.884;2022-12-18T01:08:37;97120;;;-11.9;71
68891;BME280;55932;48.702;8.884;2022-12-18T01:11:08;97120;;;-11.9;71
68891;BME280;55932;48.702;8.884;2022-12-18T01:13:38;97120;;;-12.1;71
68891;BME280;55932;48.702;8.884;2022-12-18T01:16:15;97130;;;-12.2;71
68891;BME280;55932;48.702;8.884;2022-12-18T01:21:07;97120;;;-12.1;71.5
68891;BME280;55932;48.702;8.884;2022-12-18T01:23:33;97120;;;-11.5;71
68891;BME280;55932;48.702;8.884;2022-12-18T01:26:12;97110;;;-11.3;71
68891;BME280;55932;48.702;8.884;2022-12-18T01:33:42;97120;;;-11.7;71.5
68891;BME280;55932;48.702;8.884;2022-12-18T01:36:14;97140;;;-11.7;71.5
68891;BME280;55932;48.702;8.884;2022-12-18T01:38:43;97130;;;-11.7;72
68891;BME280;55932;48.702;8.884;2022-12-18T01:41:14;97130;;;-11.7;72
68891;BME280;55932;48.702;8.884;2022-12-18T01:46:09;97130;;;-11.4;72
68891;BME280;55932;48.702;8.884;2022-12-18T01:48:40;97120;;;-11.3;72
68891;BME280;55932;48.702;8.884;2022-12-18T01:53:49;97120;;;-11.2;72
68891;BME280;55932;48.702;8.884;2022-12-18T01:56:21;97120;;;-11;72
68891;BME280;55932;48.702;8.884;2022-12-18T01:59:13;97120;;;-10.9;71.5
68891;BME280;55932;48.702;8.884;2022-12-18T02:01:13;97120;;;-11.1;71.5
68891;BME280;55932;48.702;8.884;2022-12-18T02:03:44;97120;;;-11.3;72
68891;BME280;55932;48.702;8.884;2022-12-18T02:11:32;97110;;;-10.3;71.5
68891;BME280;55932;48.702;8.884;2022-12-18T02:14:10;97120;;;-10;71
68891;BME280;55932;48.702;8.884;2022-12-18T02:16:28;97120;;;-9.8;71.5
68891;BME280;55932;48.702;8.884;2022-12-18T02:21:35;97120;;;-10.1;72
68891;BME280;55932;48.702;8.884;2022-12-18T02:24:54;97120;;;-10;72.5
68891;BME280;55932;48.702;8.884;2022-12-18T02:26:34;97120;;;-10;72.5
68891;BME280;55932;48.702;8.884;2022-12-18T02:28:52;97120;;;-10;72.5
68891;BME280;55932;48.702;8.884;2022-12-18T02:31:28;97130;;;-10;72.5
68891;BME280;55932;48.702;8.884;2022-12-18T02:33:52;97120;;;-10;73
68891;BME280;55932;48.702;8.884;2022-12-18T02:39:06;97130;;;-10.2;73
68891;BME280;55932;48.702;8.884;2022-12-18T02:41:43;97140;;;-10.2;73
68891;BME280;55932;48.702;8.884;2022-12-18T02:44:01;97130;;;-10.1;72.5
68891;BME280;55932;48.702;8.884;2022-12-18T02:48:55;97120;;;-10.2;73
68891;BME280;55932;48.702;8.884;2022-12-18T02:51:29;97130;;;-10.3;73
68891;BME280;55932;48.702;8.884;2022-12-18T02:53:58;97140;;;-10.4;73.5
68891;BME280;55932;48.702;8.884;2022-12-18T02:56:21;97130;;;-10.3;73
68891;BME280;55932;48.702;8.884;2022-12-18T03:03:55;97130;;;-10.4;73
68891;BME280;55932;48.702;8.884;2022-12-18T03:06:25;97130;;;-10.4;73
68891;BME280;55932;48.702;8.884;2022-12-18T03:08:56;97130;;;-10.5;73.5
68891;BME280;55932;48.702;8.884;2022-12-18T03:11:25;97130;;;-10.5;73.5
68891;BME280;55932;48.702;8.884;2022-12-18T03:14:02;97140;;;-10.5;73.5
68891;BME280;55932;48.702;8.884;2022-12-18T03:16:33;97140;;;-10.4;73.5
68891;BME280;55932;48.702;8.884;2022-12-18T03:19:06;97140;;;-10.4;73.5
68891;BME280;55932;48.702;8.884;2022-12-18T03:21:29;97150;;;-10.5;73.5
68891;BME280;55932;48.702;8.884;2022-12-18T03:23:59;97140;;;-10.6;73.5
68891;BME280;55932;48.702;8.884;2022-12-18T03:31:31;97150;;;-10.6;73
68891;BME280;55932;48.702;8.884;2022-12-18T03:34:04;97150;;;-10.5;73
68891;BME280;55932;48.702;8.884;2022-12-18T03:36:33;97140;;;-10.5;73
68891;BME280;55932;48.702;8.884;2022-12-18T03:39:11;97150;;;-10.4;73
68891;BME280;55932;48.702;8.884;2022-12-18T03:41:43;97140;;;-10.5;73
68891;BME280;55932;48.702;8.884;2022-12-18T03:51:38;97150;;;-10.8;74
68891;BME280;55932;48.702;8.884;2022-12-18T03:54:07;97130;;;-10.8;73.5
68891;BME280;55932;48.702;8.884;2022-12-18T04:01:41;97140;;;-10.7;73
68891;BME280;55932;48.702;8.884;2022-12-18T04:04:11;97150;;;-10.8;73.5
68891;BME280;55932;48.702;8.884;2022-12-18T04:06:48;97140;;;-10.7;73.5
68891;BME280;55932;48.702;8.884;2022-12-18T04:09:19;97140;;;-10.7;73.5
68891;BME280;55932;48.702;8.884;2022-12-18T04:11:50;97140;;;-10.7;73.5
68891;BME280;55932;48.702;8.884;2022-12-18T04:14:21;97140;;;-10.6;73.5
68891;BME280;55932;48.702;8.884;2022-12-18T04:19:15;97130;;;-10.7;73.5
68891;BME280;55932;48.702;8.884;2022-12-18T04:21:46;97140;;;-10.8;74
68891;BME280;55932;48.702;8.884;2022-12-18T04:29:18;97160;;;-10.6;73
68891;BME280;55932;48.702;8.884;2022-12-18T04:31:50;97150;;;-10.5;73
68891;BME280;55932;48.702;8.884;2022-12-18T04:34:20;97150;;;-10.6;73
68891;BME280;55932;48.702;8.884;2022-12-18T04:39:29;97150;;;-10.8;73
68891;BME280;55932;48.702;8.884;2022-12-18T04:41:58;97150;;;-10.9;73
68891;BME280;55932;48.702;8.884;2022-12-18T04:46:53;97140;;;-10.8;73
68891;BME280;55932;48.702;8.884;2022-12-18T04:49:24;97140;;;-10.7;73
68891;BME280;55932;48.702;8.884;2022-12-18T04:56:58;97140;;;-10.2;73
68891;BME280;55932;48.702;8.884;2022-12-18T04:59:28;97140;;;-10;73
68891;BME280;55932;48.702;8.884;2022-12-18T05:01:58;97150;;;-9.7;73
68891;BME280;55932;48.702;8.884;2022-12-18T05:07:06;97130;;;-9.1;73
68891;BME280;55932;48.702;8.884;2022-12-18T05:09:37;97130;;;-8.9;73
68891;BME280;55932;48.702;8.884;2022-12-18T05:14:32;97130;;;-8.7;73.5
68891;BME280;55932;48.702;8.884;2022-12-18T05:17:03;97140;;;-8.6;73.5
68891;BME280;55932;48.702;8.884;2022-12-18T05:24:36;97130;;;-8.4;74
68891;BME280;55932;48.702;8.884;2022-12-18T05:27:06;97130;;;-8.3;74
68891;BME280;55932;48.702;8.884;2022-12-18T05:29:37;97130;;;-8.3;74
68891;BME280;55932;48.702;8.884;2022-12-18T05:32:08;97140;;;-8.3;74
68891;BME280;55932;48.702;8.884;2022-12-18T05:37:15;97140;;;-8.3;74.5
68891;BME280;55932;48.702;8.884;2022-12-18T05:39:46;97140;;;-8.3;74.5
68891;BME280;55932;48.702;8.884;2022-12-18T05:44:41;97130;;;-8.3;74
68891;BME280;55932;48.702;8.884;2022-12-18T05:47:12;97120;;;-8.4;74.5
68891;BME280;55932;48.702;8.884;2022-12-18T05:54:44;97130;;;-8.5;74.5
68891;BME280;55932;48.702;8.884;2022-12-18T05:57:15;97140;;;-8.7;74.5
68891;BME280;55932;48.702;8.884;2022-12-18T05:59:46;97140;;;-8.9;75
68891;BME280;55932;48.702;8.884;2022-12-18T06:02:17;97140;;;-9.1;75
68891;BME280;55932;48.702;8.884;2022-12-18T06:04:54;97130;;;-9;75
68891;BME280;55932;48.702;8.884;2022-12-18T06:07:25;97130;;;-9;74.5
68891;BME280;55932;48.702;8.884;2022-12-18T06:09:56;97140;;;-9.1;74.5
68891;BME280;55932;48.702;8.884;2022-12-18T06:12:27;97150;;;-9.1;74.5
68891;BME280;55932;48.702;8.884;2022-12-18T06:14:58;97160;;;-9.3;74.5
68891;BME280;55932;48.702;8.884;2022-12-18T06:17:42;97170;;;-9.3;74.5
68891;BME280;55932;48.702;8.884;2022-12-18T06:20:05;97170;;;-9.5;74.5
68891;BME280;55932;48.702;8.884;2022-12-18T06:25:00;97160;;;-9.6;73.5
68891;BME280;55932;48.702;8.884;2022-12-18T06:27:31;97170;;;-9.9;74.5
68891;BME280;55932;48.702;8.884;2022-12-18T06:30:02;97170;;;-10.1;74.5
68891;BME280;55932;48.702;8.884;2022-12-18T06:32:38;97180;;;-10.3;74.5
68891;BME280;55932;48.702;8.884;2022-12-18T06:37:39;97170;;;-10.4;74
68891;BME280;55932;48.702;8.884;2022-12-18T06:40:09;97180;;;-10.7;74
68891;BME280;55932;48.702;8.884;2022-12-18T06:42:39;97180;;;-10.8;74
68891;BME280;55932;48.702;8.884;2022-12-18T06:45:09;97180;;;-11;74
68891;BME280;55932;48.702;8.884;2022-12-18T06:55:04;97190;;;-11.2;73.5
68891;BME280;55932;48.702;8.884;2022-12-18T06:57:35;97190;;;-11.2;73.5
68891;BME280;55932;48.702;8.884;2022-12-18T07:00:12;97190;;;-11.1;73
68891;BME280;55932;48.702;8.884;2022-12-18T07:02:37;97200;;;-11.2;73.5
68891;BME280;55932;48.702;8.884;2022-12-18T07:05:15;97200;;;-11;73
68891;BME280;55932;48.702;8.884;2022-12-18T07:13:00;97200;;;-9.8;72.5
68891;BME280;55932;48.702;8.884;2022-12-18T07:15:17;97210;;;-9.7;72.5
68891;BME280;55932;48.702;8.884;2022-12-18T07:20:12;97200;;;-9.7;73
68891;BME280;55932;48.702;8.884;2022-12-18T07:22:42;97200;;;-9.6;73
68891;BME280;55932;48.702;8.884;2022-12-18T07:25:13;97210;;;-9.4;73
68891;BME280;55932;48.702;8.884;2022-12-18T07:35:09;97200;;;-8.7;73.5
68891;BME280;55932;48.702;8.884;2022-12-18T07:37:40;97200;;;-8.7;73.5
68891;BME280;55932;48.702;8.884;2022-12-18T07:40:11;97200;;;-8.8;73.5
68891;BME280;55932;48.702;8.884;2022-12-18T07:42:42;97200;;;-9;73.5
68891;BME280;55932;48.702;8.884;2022-12-18T07:45:12;97200;;;-9;73.5
68891;BME280;55932;48.702;8.884;2022-12-18T07:52:51;97210;;;-8.7;73.5
68891;BME280;55932;48.702;8.884;2022-12-18T07:55:21;97220;;;-8.7;73.5
68891;BME280;55932;48.702;8.884;2022-12-18T08:02:48;97210;;;-8.4;73.5
68891;BME280;55932;48.702;8.884;2022-12-18T08:05:18;97210;;;-8.1;73.5
68891;BME280;55932;48.702;8.884;2022-12-18T08:07:49;97210;;;-7.3;72
68891;BME280;55932;48.702;8.884;2022-12-18T08:12:53;97200;;;-6.8;73
68891;BME280;55932;48.702;8.884;2022-12-18T08:17:59;97200;;;-5.5;72.5
68891;BME280;55932;48.702;8.884;2022-12-18T08:23:01;97200;;;-4.2;72.5
68891;BME280;55932;48.702;8.884;2022-12-18T08:25:33;97200;;;-4;72.5
68891;BME280;55932;48.702;8.884;2022-12-18T08:28:03;97200;;;-4.2;74.5
68891;BME280;55932;48.702;8.884;2022-12-18T08:30:35;97190;;;-3.3;74
68891;BME280;55932;48.702;8.884;2022-12-18T08:33:12;97190;;;-1.4;70
68891;BME280;55932;48.702;8.884;2022-12-18T08:35:41;97190;;;-1.9;71.5
68891;BME280;55932;48.702;8.884;2022-12-18T08:38:11;97180;;;-0.8;69.5
68891;BME280;55932;48.702;8.884;2022-12-18T08:43:08;97190;;;0;68
68891;BME280;55932;48.702;8.884;2022-12-18T08:45:38;97190;;;-0.1;68
68891;BME280;55932;48.702;8.884;2022-12-18T08:51:00;97180;;;-0.2;69
68891;BME280;55932;48.702;8.884;2022-12-18T08:53:15;97180;;;-0.2;69.5
68891;BME280;55932;48.702;8.884;2022-12-18T08:58:09;97180;;;0;67
68891;BME280;55932;48.702;8.884;2022-12-18T09:00:40;97170;;;0.5;67.5
68891;BME280;55932;48.702;8.884;2022-12-18T09:03:13;97170;;;1.3;67
68891;BME280;55932;48.702;8.884;2022-12-18T09:05:49;97170;;;1.7;66.5
68891;BME280;55932;48.702;8.884;2022-12-18T09:10:50;97170;;;1.1;66.5
68891;BME280;55932;48.702;8.884;2022-12-18T09:13:20;97160;;;0.7;67.5
68891;BME280;55932;48.702;8.884;2022-12-18T09:15:51;97160;;;0.9;66.5
68891;BME280;55932;48.702;8.884;2022-12-18T09:18:21;97170;;;1.4;65.5
68891;BME280;55932;48.702;8.884;2022-12-18T09:20:45;97170;;;1.4;65
68891;BME280;55932;48.702;8.884;2022-12-18T09:23:22;97170;;;1.5;65.5
68891;BME280;55932;48.702;8.884;2022-12-18T09:25:58;97160;;;2.1;65.5
68891;BME280;55932;48.702;8.884;2022-12-18T09:28:25;97160;;;2;64.5
68891;BME280;55932;48.702;8.884;2022-12-18T09:33:13;97160;;;1.3;66
68891;BME280;55932;48.702;8.884;2022-12-18T09:35:44;97160;;;1.9;65
68891;BME280;55932;48.702;8.884;2022-12-18T09:38:16;97160;;;2.2;65
68891;BME280;55932;48.702;8.884;2022-12-18T09:40:47;97160;;;1.4;65.5
68891;BME280;55932;48.702;8.884;2022-12-18T09:43:18;97160;;;1.4;65.5
68891;BME280;55932;48.702;8.884;2022-12-18T09:45:49;97160;;;1.5;67
68891;BME280;55932;48.702;8.884;2022-12-18T09:48:29;97170;;;2.2;65.5
68891;BME280;55932;48.702;8.884;2022-12-18T09:50:48;97170;;;1.7;67
68891;BME280;55932;48.702;8.884;2022-12-18T10:00:52;97170;;;1.9;67.5
68891;BME280;55932;48.702;8.884;2022-12-18T10:06:35;97160;;;3;65.5
68891;BME280;55932;48.702;8.884;2022-12-18T10:18:57;97170;;;2.4;66.5
68891;BME280;55932;48.702;8.884;2022-12-18T10:21:27;97170;;;2.2;68
68891;BME280;55932;48.702;8.884;2022-12-18T10:23:58;97170;;;2.4;67
68891;BME280;55932;48.702;8.884;2022-12-18T10:34:08;97160;;;3;68.5
68891;BME280;55932;48.702;8.884;2022-12-18T10:36:35;97160;;;2.5;67.5
68891;BME280;55932;48.702;8.884;2022-12-18T10:39:27;97170;;;2;69
68891;BME280;55932;48.702;8.884;2022-12-18T10:46:17;97160;;;2.7;68.5
68891;BME280;55932;48.702;8.884;2022-12-18T10:48:49;97170;;;2.7;68
68891;BME280;55932;48.702;8.884;2022-12-18T10:51:25;97170;;;2.5;68
68891;BME280;55932;48.702;8.884;2022-12-18T10:59:00;97150;;;2.9;68
68891;BME280;55932;48.702;8.884;2022-12-18T11:01:55;97150;;;2.3;69
68891;BME280;55932;48.702;8.884;2022-12-18T11:04:09;97150;;;2.5;69
68891;BME280;55932;48.702;8.884;2022-12-18T11:09:00;97150;;;2.4;68.5
68891;BME280;55932;48.702;8.884;2022-12-18T11:11:20;97140;;;2.8;68.5
68891;BME280;55932;48.702;8.884;2022-12-18T11:13:53;97140;;;2.5;69
68891;BME280;55932;48.702;8.884;2022-12-18T11:21:11;97130;;;4.2;67
68891;BME280;55932;48.702;8.884;2022-12-18T11:23:56;97130;;;4.9;66
68891;BME280;55932;48.702;8.884;2022-12-18T11:26:11;97140;;;4.1;66.5
68891;BME280;55932;48.702;8.884;2022-12-18T11:28:44;97140;;;3.5;68
68891;BME280;55932;48.702;8.884;2022-12-18T11:31:21;97130;;;3.3;68.5
68891;BME280;55932;48.702;8.884;2022-12-18T11:33:46;97130;;;2.7;68
68891;BME280;55932;48.702;8.884;2022-12-18T11:36:13;97130;;;2.3;69
68891;BME280;55932;48.702;8.884;2022-12-18T11:38:55;97130;;;2.9;69
68891;BME280;55932;48.702;8.884;2022-12-18T11:41:37;97130;;;3.8;68.5
68891;BME280;55932;48.702;8.884;2022-12-18T11:51:38;97120;;;2.5;69.5
68891;BME280;55932;48.702;8.884;2022-12-18T11:54:11;97120;;;2.6;69
68891;BME280;55932;48.702;8.884;2022-12-18T11:56:47;97110;;;2.6;70
68891;BME280;55932;48.702;8.884;2022-12-18T12:00:15;97120;;;2.4;70.5
68891;BME280;55932;48.702;8.884;2022-12-18T12:01:54;97120;;;2.6;70
68891;BME280;55932;48.702;8.884;2022-12-18T12:12:01;97110;;;1.7;69.5
68891;BME280;55932;48.702;8.884;2022-12-18T12:14:25;97110;;;1.5;69.5
68891;BME280;55932;48.702;8.884;2022-12-18T12:19:05;97110;;;1.1;70
68891;BME280;55932;48.702;8.884;2022-12-18T12:21:49;97100;;;1.1;70
68891;BME280;55932;48.702;8.884;2022-12-18T12:24:12;97110;;;1.1;70.5
68891;BME280;55932;48.702;8.884;2022-12-18T12:26:42;97100;;;0.7;70.5
68891;BME280;55932;48.702;8.884;2022-12-18T12:31:27;97100;;;0.4;71.5
68891;BME280;55932;48.702;8.884;2022-12-18T12:33:54;97100;;;0.3;71
68891;BME280;55932;48.702;8.884;2022-12-18T12:36:41;97110;;;0.2;71.5
68891;BME280;55932;48.702;8.884;2022-12-18T12:39:06;97110;;;0.3;71.5
68891;BME280;55932;48.702;8.884;2022-12-18T12:44:05;97120;;;0.2;72
68891;BME280;55932;48.702;8.884;2022-12-18T12:46:35;97110;;;0.4;71.5
68891;BME280;55932;48.702;8.884;2022-12-18T12:49:04;97120;;;0.5;71
68891;BME280;55932;48.702;8.884;2022-12-18T12:58:59;97120;;;0.9;71
68891;BME280;55932;48.702;8.884;2022-12-18T13:01:27;97140;;;0.8;71
68891;BME280;55932;48.702;8.884;2022-12-18T13:05:01;97140;;;0.4;71.5
68891;BME280;55932;48.702;8.884;2022-12-18T13:11:52;97130;;;0;72
68891;BME280;55932;48.702;8.884;2022-12-18T13:14:10;97130;;;-0.1;72
68891;BME280;55932;48.702;8.884;2022-12-18T13:16:37;97130;;;-0.2;72
68891;BME280;55932;48.702;8.884;2022-12-18T13:19:21;97130;;;-0.4;72.5
68891;BME280;55932;48.702;8.884;2022-12-18T13:21:37;97120;;;-0.5;73
68891;BME280;55932;48.702;8.884;2022-12-18T13:26:28;97120;;;-0.2;72
68891;BME280;55932;48.702;8.884;2022-12-18T13:28:58;97110;;;-0.4;72
68891;BME280;55932;48.702;8.884;2022-12-18T13:31:57;97110;;;-0.5;72.5
68891;BME280;55932;48.702;8.884;2022-12-18T13:34:29;97120;;;-0.7;73
68891;BME280;55932;48.702;8.884;2022-12-18T13:36:30;97120;;;-0.7;73
68891;BME280;55932;48.702;8.884;2022-12-18T13:39:20;97110;;;-0.8;73
68891;BME280;55932;48.702;8.884;2022-12-18T13:41:30;97110;;;-0.8;73.5
68891;BME280;55932;48.702;8.884;2022-12-18T13:46:42;97100;;;-1;73.5
68891;BME280;55932;48.702;8.884;2022-12-18T13:49:20;97110;;;-1;74
68891;BME280;55932;48.702;8.884;2022-12-18T13:51:53;97100;;;-0.9;74
68891;BME280;55932;48.702;8.884;2022-12-18T13:54:02;97110;;;-1;73.5
68891;BME280;55932;48.702;8.884;2022-12-18T13:56:32;97110;;;-1.1;74.5
68891;BME280;55932;48.702;8.884;2022-12-18T13:59:06;97110;;;-0.9;74
68891;BME280;55932;48.702;8.884;2022-12-18T14:01:32;97110;;;-1;73.5
68891;BME280;55932;48.702;8.884;2022-12-18T14:04:20;97120;;;-1.3;73.5
68891;BME280;55932;48.702;8.884;2022-12-18T14:06:34;97120;;;-1.5;74
68891;BME280;55932;48.702;8.884;2022-12-18T14:09:08;97120;;;-1.6;74
68891;BME280;55932;48.702;8.884;2022-12-18T14:14:17;97120;;;-1.7;74
68891;BME280;55932;48.702;8.884;2022-12-18T14:16:55;97120;;;-1.8;74
68891;BME280;55932;48.702;8.884;2022-12-18T14:19:25;97120;;;-1.8;74.5
68891;BME280;55932;48.702;8.884;2022-12-18T14:21:47;97120;;;-1.8;74.5
68891;BME280;55932;48.702;8.884;2022-12-18T14:24:17;97120;;;-1.7;74
68891;BME280;55932;48.702;8.884;2022-12-18T14:29:36;97120;;;-1.7;74
68891;BME280;55932;48.702;8.884;2022-12-18T14:31:36;97120;;;-1.8;74
68891;BME280;55932;48.702;8.884;2022-12-18T14:34:07;97130;;;-1.9;74
68891;BME280;55932;48.702;8.884;2022-12-18T14:36:39;97120;;;-2.1;74
68891;BME280;55932;48.702;8.884;2022-12-18T14:39:11;97120;;;-2.2;74.5
68891;BME280;55932;48.702;8.884;2022-12-18T14:41:38;97120;;;-2.2;74
68891;BME280;55932;48.702;8.884;2022-12-18T14:44:11;97130;;;-2.3;74
68891;BME280;55932;48.702;8.884;2022-12-18T14:46:39;97130;;;-2.4;74.5
68891;BME280;55932;48.702;8.884;2022-12-18T14:49:26;97120;;;-2.5;74.5
68891;BME280;55932;48.702;8.884;2022-12-18T14:51:56;97120;;;-2.6;74.5
68891;BME280;55932;48.702;8.884;2022-12-18T14:54:22;97120;;;-2.8;74.5
68891;BME280;55932;48.702;8.884;2022-12-18T14:56:55;97120;;;-3;74.5
68891;BME280;55932;48.702;8.884;2022-12-18T14:59:31;97130;;;-3.1;75
68891;BME280;55932;48.702;8.884;2022-12-18T15:01:45;97130;;;-3.2;75
68891;BME280;55932;48.702;8.884;2022-12-18T15:04:23;97140;;;-3.3;75
68891;BME280;55932;48.702;8.884;2022-12-18T15:06:43;97130;;;-3.5;75
68891;BME280;55932;48.702;8.884;2022-12-18T15:09:27;97130;;;-3.6;75
68891;BME280;55932;48.702;8.884;2022-12-18T15:11:44;97140;;;-3.7;75
68891;BME280;55932;48.702;8.884;2022-12-18T15:14:44;97140;;;-3.7;75
68891;BME280;55932;48.702;8.884;2022-12-18T15:16:44;97140;;;-3.8;75
68891;BME280;55932;48.702;8.884;2022-12-18T15:21:45;97130;;;-4.1;75
68891;BME280;55932;48.702;8.884;2022-12-18T15:24:30;97130;;;-4.2;75
68891;BME280;55932;48.702;8.884;2022-12-18T15:26:57;97130;;;-4.2;75
68891;BME280;55932;48.702;8.884;2022-12-18T15:29:27;97130;;;-4.3;75
68891;BME280;55932;48.702;8.884;2022-12-18T15:31:58;97140;;;-4.3;74.5
68891;BME280;55932;48.702;8.884;2022-12-18T15:36:46;97140;;;-4.5;75.5
68891;BME280;55932;48.702;8.884;2022-12-18T15:39:17;97140;;;-4.5;75.5
68891;BME280;55932;48.702;8.884;2022-12-18T15:41:47;97140;;;-4.6;75
68891;BME280;55932;48.702;8.884;2022-12-18T15:44:34;97130;;;-4.7;75.5
68891;BME280;55932;48.702;8.884;2022-12-18T15:46:59;97140;;;-4.8;76
68891;BME280;55932;48.702;8.884;2022-12-18T15:52:01;97130;;;-4.8;76.5
68891;BME280;55932;48.702;8.884;2022-12-18T15:54:43;97130;;;-4.8;76.5
68891;BME280;55932;48.702;8.884;2022-12-18T15:57:13;97130;;;-4.8;76.5
68891;BME280;55932;48.702;8.884;2022-12-18T15:59:44;97130;;;-4.8;76
68891;BME280;55932;48.702;8.884;2022-12-18T16:04:45;97140;;;-4.6;75.5
68891;BME280;55932;48.702;8.884;2022-12-18T16:07:15;97140;;;-4.7;76
68891;BME280;55932;48.702;8.884;2022-12-18T16:12:25;97130;;;-4.6;76
68891;BME280;55932;48.702;8.884;2022-12-18T16:14:47;97140;;;-4.5;76.5
68891;BME280;55932;48.702;8.884;2022-12-18T16:22:13;97130;;;-4.2;75.5
68891;BME280;55932;48.702;8.884;2022-12-18T16:29:47;97130;;;-4.3;76.5
68891;BME280;55932;48.702;8.884;2022-12-18T16:32:18;97130;;;-4.3;76.5
68891;BME280;55932;48.702;8.884;2022-12-18T16:37:29;97120;;;-4.2;76.5
68891;BME280;55932;48.702;8.884;2022-12-18T16:39:59;97120;;;-4.2;76.5
68891;BME280;55932;48.702;8.884;2022-12-18T16:42:21;97130;;;-4.1;76.5
68891;BME280;55932;48.702;8.884;2022-12-18T16:47:22;97130;;;-4;77
68891;BME280;55932;48.702;8.884;2022-12-18T16:50:02;97120;;;-3.9;77
68891;BME280;55932;48.702;8.884;2022-12-18T16:52:23;97120;;;-3.8;77
68891;BME280;55932;48.702;8.884;2022-12-18T16:57:22;97120;;;-3.8;77
68891;BME280;55932;48.702;8.884;2022-12-18T16:59:52;97110;;;-3.7;76.5
68891;BME280;55932;48.702;8.884;2022-12-18T17:02:14;97110;;;-3.8;77
68891;BME280;55932;48.702;8.884;2022-12-18T17:04:43;97110;;;-3.8;77
68891;BME280;55932;48.702;8.884;2022-12-18T17:09:32;97120;;;-3.7;77
68891;BME280;55932;48.702;8.884;2022-12-18T17:12:03;97110;;;-3.8;77
68891;BME280;55932;48.702;8.884;2022-12-18T17:14:33;97100;;;-3.7;77
68891;BME280;55932;48.702;8.884;2022-12-18T17:22:04;97090;;;-3.8;77.5
68891;BME280;55932;48.702;8.884;2022-12-18T17:24:35;97090;;;-4;78
68891;BME280;55932;48.702;8.884;2022-12-18T17:27:26;97090;;;-4.1;78.5
68891;BME280;55932;48.702;8.884;2022-12-18T17:34:48;97090;;;-4;78.5
68891;BME280;55932;48.702;8.884;2022-12-18T17:37:19;97090;;;-3.9;78
68891;BME280;55932;48.702;8.884;2022-12-18T17:39:49;97090;;;-4;78.5
68891;BME280;55932;48.702;8.884;2022-12-18T17:42:19;97100;;;-4;78.5
68891;BME280;55932;48.702;8.884;2022-12-18T17:47:18;97090;;;-4;79
68891;BME280;55932;48.702;8.884;2022-12-18T17:54:39;97100;;;-3.9;79
68891;BME280;55932;48.702;8.884;2022-12-18T18:07:11;97090;;;-3.7;78.5
68891;BME280;55932;48.702;8.884;2022-12-18T18:09:41;97090;;;-3.7;78.5
68891;BME280;55932;48.702;8.884;2022-12-18T18:12:12;97090;;;-3.8;79
68891;BME280;55932;48.702;8.884;2022-12-18T18:14:43;97090;;;-3.7;79
68891;BME280;55932;48.702;8.884;2022-12-18T18:17:13;97080;;;-3.7;79
68891;BME280;55932;48.702;8.884;2022-12-18T18:19:44;97080;;;-3.8;79
68891;BME280;55932;48.702;8.884;2022-12-18T18:29:46;97090;;;-3.5;78.5
68891;BME280;55932;48.702;8.884;2022-12-18T18:37:30;97070;;;-3.5;79
68891;BME280;55932;48.702;8.884;2022-12-18T18:39:47;97080;;;-3.4;78.5
68891;BME280;55932;48.702;8.884;2022-12-18T18:42:18;97080;;;-3.4;78.5
68891;BME280;55932;48.702;8.884;2022-12-18T18:44:49;97080;;;-3.4;78.5
68891;BME280;55932;48.702;8.884;2022-12-18T18:54:50;97090;;;-3.1;78.5
68891;BME280;55932;48.702;8.884;2022-12-18T18:57:21;97090;;;-3;78
68891;BME280;55932;48.702;8.884;2022-12-18T18:59:51;97090;;;-3;78
68891;BME280;55932;48.702;8.884;2022-12-18T19:04:52;97070;;;-2.9;78
68891;BME280;55932;48.702;8.884;2022-12-18T19:07:23;97060;;;-3;78.5
68891;BME280;55932;48.702;8.884;2022-12-18T19:09:53;97060;;;-2.8;78.5
68891;BME280;55932;48.702;8.884;2022-12-18T19:12:24;97060;;;-2.8;78.5
68891;BME280;55932;48.702;8.884;2022-12-18T19:22:29;97050;;;-2.9;78.5
68891;BME280;55932;48.702;8.884;2022-12-18T19:25:07;97050;;;-2.9;78.5
68891;BME280;55932;48.702;8.884;2022-12-18T19:27:27;97040;;;-2.9;78.5
68891;BME280;55932;48.702;8.884;2022-12-18T19:32:39;97030;;;-2.9;78.5
68891;BME280;55932;48.702;8.884;2022-12-18T19:37:40;97040;;;-2.8;78.5
68891;BME280;55932;48.702;8.884;2022-12-18T19:40:12;97040;;;-2.8;78.5
68891;BME280;55932;48.702;8.884;2022-12-18T19:42:41;97040;;;-2.8;78.5
68891;BME280;55932;48.702;8.884;2022-12-18T19:47:40;97030;;;-2.5;78
68891;BME280;55932;48.702;8.884;2022-12-18T19:50:10;97030;;;-2.5;77.5
68891;BME280;55932;48.702;8.884;2022-12-18T19:55:22;97030;;;-2.5;78
68891;BME280;55932;48.702;8.884;2022-12-18T19:58:01;97030;;;-2.6;78
68891;BME280;55932;48.702;8.884;2022-12-18T20:00:41;97020;;;-2.6;78
68891;BME280;55932;48.702;8.884;2022-12-18T20:05:12;97020;;;-2.7;78.5
68891;BME280;55932;48.702;8.884;2022-12-18T20:07:42;97020;;;-2.7;78.5
68891;BME280;55932;48.702;8.884;2022-12-18T20:10:12;97010;;;-2.6;78.5
68891;BME280;55932;48.702;8.884;2022-12-18T20:12:42;97000;;;-2.6;78.5
68891;BME280;55932;48.702;8.884;2022-12-18T20:15:02;96990;;;-2.7;78.5
68891;BME280;55932;48.702;8.884;2022-12-18T20:17:32;96990;;;-2.7;78.5
68891;BME280;55932;48.702;8.884;2022-12-18T20:20:03;96990;;;-2.7;78.5
68891;BME280;55932;48.702;8.884;2022-12-18T20:22:33;96990;;;-2.6;78.5
68891;BME280;55932;48.702;8.884;2022-12-18T20:25:04;97000;;;-2.6;78.5
68891;BME280;55932;48.702;8.884;2022-12-18T20:27:34;97000;;;-2.6;78.5